sensor_id;sensor_type;location;lat;lon;timestamp;pressure;altitude;pressure_sealevel;temperature;humidity
42111;BME280;27766;52.174;5.456;2023-08-31T00:00:02;100677.25;;;12.01;100.00
42111;BME280;27766;52.174;5.456;2023-08-31T00:02:31;100669.47;;;12.00;100.00
42111;BME280;27766;52.174;5.456;2023-08-31T00:04:58;100665.06;;;11.96;100.00
42111;BME280;27766;52.174;5.456;2023-08-31T00:07:25;100668.53;;;11.95;100.00
42111;BME280;27766;52.174;5.456;2023-08-31T00:09:52;100667.66;;;11.93;100.00
42111;BME280;27766;52.174;5.456;2023-08-31T00:12:19;100660.72;;;11.93;100.00
42111;BME280;27766;52.174;5.456;2023-08-31T00:14:46;100662.56;;;12.00;100.00
42111;BME280;27766;52.174;5.456;2023-08-31T00:17:13;100660.84;;;12.02;100.00
42111;BME280;27766;52.174;5.456;2023-08-31T00:19:40;100659.16;;;12.06;100.00
42111;BME280;27766;52.174;5.456;2023-08-31T00:22:07;100658.25;;;12.02;100.00
42111;BME280;27766;52.174;5.456;2023-08-31T00:24:35;100659.94;;;11.99;100.00
42111;BME280;27766;52.174;5.456;2023-08-31T00:27:03;100662.56;;;12.00;100.00
42111;BME280;27766;52.174;5.456;2023-08-31T00:29:30;100659.16;;;12.08;100.00
42111;BME280;27766;52.174;5.456;2023-08-31T00:31:57;100662.69;;;12.14;100.00
42111;BME280;27766;52.174;5.456;2023-08-31T00:34:24;100662.69;;;12.16;100.00
42111;BME280;27766;52.174;5.456;2023-08-31T00:36:51;100666.22;;;12.21;100.00
42111;BME280;27766;52.174;5.456;2023-08-31T00:39:18;100663.66;;;12.29;100.00
42111;BME280;27766;52.174;5.456;2023-08-31T00:41:47;100663.69;;;12.32;100.00
42111;BME280;27766;52.174;5.456;2023-08-31T00:44:15;100662.84;;;12.34;100.00
42111;BME280;27766;52.174;5.456;2023-08-31T00:46:45;100664.59;;;12.39;100.00
42111;BME280;27766;52.174;5.456;2023-08-31T00:49:12;100670.69;;;12.41;100.00
42111;BME280;27766;52.174;5.456;2023-08-31T00:51:42;100664.69;;;12.45;100.00
42111;BME280;27766;52.174;5.456;2023-08-31T00:54:09;100663.81;;;12.50;100.00
42111;BME280;27766;52.174;5.456;2023-08-31T00:56:36;100657.81;;;12.55;100.00
42111;BME280;27766;52.174;5.456;2023-08-31T00:59:03;100662.16;;;12.59;100.00
42111;BME280;27766;52.174;5.456;2023-08-31T01:01:34;100663.03;;;12.61;100.00
42111;BME280;27766;52.174;5.456;2023-08-31T01:04:20;100656.09;;;12.61;100.00
42111;BME280;27766;52.174;5.456;2023-08-31T01:11:58;100651.84;;;12.68;100.00
42111;BME280;27766;52.174;5.456;2023-08-31T01:14:27;100663.16;;;12.78;100.00
42111;BME280;27766;52.174;5.456;2023-08-31T01:16:58;100657.03;;;12.70;100.00
42111;BME280;27766;52.174;5.456;2023-08-31T01:21:57;100658.78;;;12.71;100.00
42111;BME280;27766;52.174;5.456;2023-08-31T01:24:26;100653.53;;;12.63;100.00
42111;BME280;27766;52.174;5.456;2023-08-31T01:26:54;100661.41;;;12.77;100.00
42111;BME280;27766;52.174;5.456;2023-08-31T01:29:21;100658.00;;;12.86;100.00
42111;BME280;27766;52.174;5.456;2023-08-31T01:31:48;100653.66;;;12.86;100.00
42111;BME280;27766;52.174;5.456;2023-08-31T01:34:16;100660.56;;;12.82;100.00
42111;BME280;27766;52.174;5.456;2023-08-31T01:36:43;100680.44;;;12.76;100.00
42111;BME280;27766;52.174;5.456;2023-08-31T01:41:48;100678.81;;;12.93;100.00
42111;BME280;27766;52.174;5.456;2023-08-31T01:44:17;100679.75;;;13.06;100.00
42111;BME280;27766;52.174;5.456;2023-08-31T01:46:46;100692.78;;;13.11;100.00
42111;BME280;27766;52.174;5.456;2023-08-31T01:49:13;100700.59;;;13.14;100.00
42111;BME280;27766;52.174;5.456;2023-08-31T01:51:41;100704.88;;;13.09;100.00
42111;BME280;27766;52.174;5.456;2023-08-31T01:54:08;100693.59;;;13.05;100.00
42111;BME280;27766;52.174;5.456;2023-08-31T01:56:35;100701.38;;;13.01;100.00
42111;BME280;27766;52.174;5.456;2023-08-31T01:59:01;100689.25;;;12.95;100.00
42111;BME280;27766;52.174;5.456;2023-08-31T02:01:29;100696.19;;;12.97;100.00
42111;BME280;27766;52.174;5.456;2023-08-31T02:03:56;100696.94;;;12.79;100.00
42111;BME280;27766;52.174;5.456;2023-08-31T02:06:23;100690.88;;;12.85;100.00
42111;BME280;27766;52.174;5.456;2023-08-31T02:08:50;100681.34;;;12.84;100.00
42111;BME280;27766;52.174;5.456;2023-08-31T02:11:17;100686.59;;;12.86;100.00
42111;BME280;27766;52.174;5.456;2023-08-31T02:13:44;100687.44;;;12.86;100.00
42111;BME280;27766;52.174;5.456;2023-08-31T02:16:11;100685.72;;;12.90;100.00
42111;BME280;27766;52.174;5.456;2023-08-31T02:18:38;100671.88;;;12.92;100.00
42111;BME280;27766;52.174;5.456;2023-08-31T02:21:05;100678.81;;;12.92;100.00
42111;BME280;27766;52.174;5.456;2023-08-31T02:23:34;100679.66;;;12.88;100.00
42111;BME280;27766;52.174;5.456;2023-08-31T02:26:01;100670.16;;;12.90;100.00
42111;BME280;27766;52.174;5.456;2023-08-31T02:28:28;100674.47;;;12.92;100.00
42111;BME280;27766;52.174;5.456;2023-08-31T02:30:58;100673.59;;;12.89;100.00
42111;BME280;27766;52.174;5.456;2023-08-31T02:33:26;100676.22;;;12.92;100.00
42111;BME280;27766;52.174;5.456;2023-08-31T02:35:55;100672.75;;;12.90;100.00
42111;BME280;27766;52.174;5.456;2023-08-31T02:38:23;100686.59;;;12.89;100.00
42111;BME280;27766;52.174;5.456;2023-08-31T02:40:50;100671.03;;;12.92;100.00
42111;BME280;27766;52.174;5.456;2023-08-31T02:43:17;100677.94;;;12.87;100.00
42111;BME280;27766;52.174;5.456;2023-08-31T02:45:44;100670.06;;;12.76;100.00
42111;BME280;27766;52.174;5.456;2023-08-31T02:48:11;100665.75;;;12.78;100.00
42111;BME280;27766;52.174;5.456;2023-08-31T02:50:38;100670.91;;;12.72;100.00
42111;BME280;27766;52.174;5.456;2023-08-31T02:53:05;100669.19;;;12.74;100.00
42111;BME280;27766;52.174;5.456;2023-08-31T02:55:32;100680.44;;;12.73;100.00
42111;BME280;27766;52.174;5.456;2023-08-31T02:57:59;100665.75;;;12.78;100.00
42111;BME280;27766;52.174;5.456;2023-08-31T03:00:26;100667.44;;;12.76;100.00
42111;BME280;27766;52.174;5.456;2023-08-31T03:02:55;100666.63;;;12.80;100.00
42111;BME280;27766;52.174;5.456;2023-08-31T03:05:22;100657.13;;;12.82;100.00
42111;BME280;27766;52.174;5.456;2023-08-31T03:07:49;100665.78;;;12.82;100.00
42111;BME280;27766;52.174;5.456;2023-08-31T03:10:16;100657.09;;;12.80;100.00
42111;BME280;27766;52.174;5.456;2023-08-31T03:12:44;100658.81;;;12.77;100.00
42111;BME280;27766;52.174;5.456;2023-08-31T03:15:11;100654.47;;;12.74;100.00
42111;BME280;27766;52.174;5.456;2023-08-31T03:17:38;100656.19;;;12.71;100.00
42111;BME280;27766;52.174;5.456;2023-08-31T03:20:05;100657.88;;;12.69;100.00
42111;BME280;27766;52.174;5.456;2023-08-31T03:22:33;100660.44;;;12.62;100.00
42111;BME280;27766;52.174;5.456;2023-08-31T03:25:00;100671.69;;;12.60;100.00
42111;BME280;27766;52.174;5.456;2023-08-31T03:27:27;100669.13;;;12.63;100.00
42111;BME280;27766;52.174;5.456;2023-08-31T03:29:54;100660.47;;;12.67;100.00
42111;BME280;27766;52.174;5.456;2023-08-31T03:32:21;100654.44;;;12.66;100.00
42111;BME280;27766;52.174;5.456;2023-08-31T03:34:48;100657.84;;;12.62;100.00
42111;BME280;27766;52.174;5.456;2023-08-31T03:37:15;100666.53;;;12.64;100.00
42111;BME280;27766;52.174;5.456;2023-08-31T03:39:42;100667.38;;;12.63;100.00
42111;BME280;27766;52.174;5.456;2023-08-31T03:42:09;100669.09;;;12.60;100.00
42111;BME280;27766;52.174;5.456;2023-08-31T03:44:36;100668.19;;;12.55;100.00
42111;BME280;27766;52.174;5.456;2023-08-31T03:47:04;100662.16;;;12.56;100.00
42111;BME280;27766;52.174;5.456;2023-08-31T03:49:31;100671.56;;;12.46;100.00
42111;BME280;27766;52.174;5.456;2023-08-31T03:51:59;100679.38;;;12.44;100.00
42111;BME280;27766;52.174;5.456;2023-08-31T03:54:25;100675.97;;;12.53;100.00
42111;BME280;27766;52.174;5.456;2023-08-31T03:56:52;100677.72;;;12.57;100.00
42111;BME280;27766;52.174;5.456;2023-08-31T03:59:19;100681.16;;;12.51;100.00
42111;BME280;27766;52.174;5.456;2023-08-31T04:01:47;100671.66;;;12.52;100.00
42111;BME280;27766;52.174;5.456;2023-08-31T04:04:14;100673.41;;;12.56;100.00
42111;BME280;27766;52.174;5.456;2023-08-31T04:06:41;100688.06;;;12.53;100.00
42111;BME280;27766;52.174;5.456;2023-08-31T04:09:08;100694.16;;;12.56;100.00
42111;BME280;27766;52.174;5.456;2023-08-31T04:11:35;100689.03;;;12.65;100.00
42111;BME280;27766;52.174;5.456;2023-08-31T04:14:02;100687.34;;;12.72;100.00
42111;BME280;27766;52.174;5.456;2023-08-31T04:16:29;100694.31;;;12.78;100.00
42111;BME280;27766;52.174;5.456;2023-08-31T04:18:56;100690.81;;;12.76;100.00
42111;BME280;27766;52.174;5.456;2023-08-31T04:21:23;100683.91;;;12.78;100.00
42111;BME280;27766;52.174;5.456;2023-08-31T04:23:50;100687.44;;;12.83;100.00
42111;BME280;27766;52.174;5.456;2023-08-31T04:26:18;100689.16;;;12.81;100.00
42111;BME280;27766;52.174;5.456;2023-08-31T04:28:47;100692.59;;;12.81;100.00
42111;BME280;27766;52.174;5.456;2023-08-31T04:31:14;100694.38;;;12.87;100.00
42111;BME280;27766;52.174;5.456;2023-08-31T04:33:41;100696.13;;;12.88;100.00
42111;BME280;27766;52.174;5.456;2023-08-31T04:36:08;100698.72;;;12.88;100.00
42111;BME280;27766;52.174;5.456;2023-08-31T04:38:35;100708.25;;;12.91;100.00
42111;BME280;27766;52.174;5.456;2023-08-31T04:41:02;100705.69;;;12.94;100.00
42111;BME280;27766;52.174;5.456;2023-08-31T04:43:30;100705.66;;;12.91;100.00
42111;BME280;27766;52.174;5.456;2023-08-31T04:45:58;100706.53;;;12.96;100.00
42111;BME280;27766;52.174;5.456;2023-08-31T04:48:25;100703.97;;;12.99;100.00
42111;BME280;27766;52.174;5.456;2023-08-31T04:50:55;100715.22;;;12.99;100.00
42111;BME280;27766;52.174;5.456;2023-08-31T04:53:22;100725.63;;;12.96;100.00
42111;BME280;27766;52.174;5.456;2023-08-31T04:55:49;100723.88;;;12.94;100.00
42111;BME280;27766;52.174;5.456;2023-08-31T04:58:16;100722.06;;;12.85;100.00
42111;BME280;27766;52.174;5.456;2023-08-31T05:00:43;100728.09;;;12.81;100.00
42111;BME280;27766;52.174;5.456;2023-08-31T05:03:14;100729.00;;;12.85;100.00
42111;BME280;27766;52.174;5.456;2023-08-31T05:05:42;100733.34;;;12.89;100.00
42111;BME280;27766;52.174;5.456;2023-08-31T05:08:09;100739.47;;;12.95;100.00
42111;BME280;27766;52.174;5.456;2023-08-31T05:10:36;100743.84;;;13.03;100.00
42111;BME280;27766;52.174;5.456;2023-08-31T05:13:03;100742.97;;;13.05;100.00
42111;BME280;27766;52.174;5.456;2023-08-31T05:15:31;100740.38;;;13.04;100.00
42111;BME280;27766;52.174;5.456;2023-08-31T05:17:58;100740.41;;;13.11;100.00
42111;BME280;27766;52.174;5.456;2023-08-31T05:20:25;100751.66;;;13.10;100.00
42111;BME280;27766;52.174;5.456;2023-08-31T05:22:52;100753.38;;;13.07;100.00
42111;BME280;27766;52.174;5.456;2023-08-31T05:25:19;100747.28;;;13.02;100.00
42111;BME280;27766;52.174;5.456;2023-08-31T05:27:46;100770.66;;;13.02;100.00
42111;BME280;27766;52.174;5.456;2023-08-31T05:30:13;100762.94;;;13.11;100.00
42111;BME280;27766;52.174;5.456;2023-08-31T05:32:39;100762.97;;;13.17;100.00
42111;BME280;27766;52.174;5.456;2023-08-31T05:35:07;100766.47;;;13.19;100.00
42111;BME280;27766;52.174;5.456;2023-08-31T05:37:34;100766.50;;;13.25;100.00
42111;BME280;27766;52.174;5.456;2023-08-31T05:40:03;100766.50;;;13.30;100.00
42111;BME280;27766;52.174;5.456;2023-08-31T05:42:33;100767.38;;;13.27;100.00
42111;BME280;27766;52.174;5.456;2023-08-31T05:45:00;100782.13;;;13.35;100.00
42111;BME280;27766;52.174;5.456;2023-08-31T05:47:27;100783.94;;;13.43;100.00
42111;BME280;27766;52.174;5.456;2023-08-31T05:49:53;100770.09;;;13.43;100.00
42111;BME280;27766;52.174;5.456;2023-08-31T05:52:21;100770.13;;;13.49;100.00
42111;BME280;27766;52.174;5.456;2023-08-31T05:54:48;100781.22;;;13.29;100.00
42111;BME280;27766;52.174;5.456;2023-08-31T05:57:18;100787.28;;;13.25;100.00
42111;BME280;27766;52.174;5.456;2023-08-31T05:59:45;100788.16;;;13.27;100.00
42111;BME280;27766;52.174;5.456;2023-08-31T06:02:12;100789.94;;;13.35;100.00
42111;BME280;27766;52.174;5.456;2023-08-31T06:04:40;100796.09;;;13.46;100.00
42111;BME280;27766;52.174;5.456;2023-08-31T06:07:07;100797.00;;;13.54;100.00
42111;BME280;27766;52.174;5.456;2023-08-31T06:09:34;100802.22;;;13.59;100.00
42111;BME280;27766;52.174;5.456;2023-08-31T06:12:01;100806.56;;;13.60;100.00
42111;BME280;27766;52.174;5.456;2023-08-31T06:14:28;100809.19;;;13.65;100.00
42111;BME280;27766;52.174;5.456;2023-08-31T06:16:55;100799.66;;;13.70;100.00
42111;BME280;27766;52.174;5.456;2023-08-31T06:19:22;100799.72;;;13.77;100.00
42111;BME280;27766;52.174;5.456;2023-08-31T06:21:49;100802.31;;;13.79;100.00
42111;BME280;27766;52.174;5.456;2023-08-31T06:24:17;100798.84;;;13.83;100.00
42111;BME280;27766;52.174;5.456;2023-08-31T06:26:44;100815.34;;;13.82;100.00
42111;BME280;27766;52.174;5.456;2023-08-31T06:29:11;100813.59;;;13.83;100.00
42111;BME280;27766;52.174;5.456;2023-08-31T06:31:38;100812.75;;;13.91;100.00
42111;BME280;27766;52.174;5.456;2023-08-31T06:34:06;100799.81;;;14.07;100.00
42111;BME280;27766;52.174;5.456;2023-08-31T06:36:33;100810.16;;;13.91;100.00
42111;BME280;27766;52.174;5.456;2023-08-31T06:39:00;100800.63;;;13.95;100.00
42111;BME280;27766;52.174;5.456;2023-08-31T06:41:28;100806.72;;;13.97;100.00
42111;BME280;27766;52.174;5.456;2023-08-31T06:43:55;100804.19;;;14.17;100.00
42111;BME280;27766;52.174;5.456;2023-08-31T06:46:21;100800.75;;;14.28;100.00
42111;BME280;27766;52.174;5.456;2023-08-31T06:48:53;100809.44;;;14.25;100.00
42111;BME280;27766;52.174;5.456;2023-08-31T06:51:23;100819.00;;;14.45;100.00
42111;BME280;27766;52.174;5.456;2023-08-31T06:53:51;100811.22;;;14.68;100.00
42111;BME280;27766;52.174;5.456;2023-08-31T06:56:18;100806.03;;;14.71;100.00
42111;BME280;27766;52.174;5.456;2023-08-31T06:58:45;100814.72;;;14.98;100.00
42111;BME280;27766;52.174;5.456;2023-08-31T07:01:12;100807.75;;;15.28;100.00
42111;BME280;27766;52.174;5.456;2023-08-31T07:03:40;100815.53;;;15.43;100.00
42111;BME280;27766;52.174;5.456;2023-08-31T07:06:07;100825.06;;;15.57;100.00
42111;BME280;27766;52.174;5.456;2023-08-31T07:08:34;100823.28;;;15.65;100.00
42111;BME280;27766;52.174;5.456;2023-08-31T07:11:03;100825.00;;;15.64;100.00
42111;BME280;27766;52.174;5.456;2023-08-31T07:13:30;100835.47;;;15.66;100.00
42111;BME280;27766;52.174;5.456;2023-08-31T07:15:56;100834.59;;;15.69;100.00
42111;BME280;27766;52.174;5.456;2023-08-31T07:18:24;100831.97;;;15.64;100.00
42111;BME280;27766;52.174;5.456;2023-08-31T07:20:51;100831.06;;;15.80;100.00
42111;BME280;27766;52.174;5.456;2023-08-31T07:23:18;100833.66;;;15.77;100.00
42111;BME280;27766;52.174;5.456;2023-08-31T07:25:45;100840.59;;;15.94;100.00
42111;BME280;27766;52.174;5.456;2023-08-31T07:28:12;100851.88;;;16.04;100.00
42111;BME280;27766;52.174;5.456;2023-08-31T07:30:39;100854.41;;;16.18;100.00
42111;BME280;27766;52.174;5.456;2023-08-31T07:33:06;100856.97;;;16.28;100.00
42111;BME280;27766;52.174;5.456;2023-08-31T07:35:53;100851.78;;;16.27;100.00
42111;BME280;27766;52.174;5.456;2023-08-31T07:38:23;100859.63;;;16.21;100.00
42111;BME280;27766;52.174;5.456;2023-08-31T07:40:53;100862.09;;;16.45;100.00
42111;BME280;27766;52.174;5.456;2023-08-31T07:43:20;100856.00;;;16.50;100.00
42111;BME280;27766;52.174;5.456;2023-08-31T07:45:48;100866.41;;;16.56;100.00
42111;BME280;27766;52.174;5.456;2023-08-31T07:48:16;100861.31;;;16.34;100.00
42111;BME280;27766;52.174;5.456;2023-08-31T07:50:43;100869.94;;;16.49;100.00
42111;BME280;27766;52.174;5.456;2023-08-31T07:53:11;100871.75;;;16.34;100.00
42111;BME280;27766;52.174;5.456;2023-08-31T07:55:40;100870.78;;;16.51;100.00
42111;BME280;27766;52.174;5.456;2023-08-31T07:58:07;100867.09;;;16.81;100.00
42111;BME280;27766;52.174;5.456;2023-08-31T08:00:34;100875.97;;;16.57;100.00
42111;BME280;27766;52.174;5.456;2023-08-31T08:03:01;100877.63;;;16.70;100.00
42111;BME280;27766;52.174;5.456;2023-08-31T08:05:28;100880.28;;;16.61;100.00
42111;BME280;27766;52.174;5.456;2023-08-31T08:07:55;100889.03;;;16.57;100.00
42111;BME280;27766;52.174;5.456;2023-08-31T08:10:22;100885.34;;;16.89;100.00
42111;BME280;27766;52.174;5.456;2023-08-31T08:12:49;100887.16;;;16.74;100.00
42111;BME280;27766;52.174;5.456;2023-08-31T08:15:17;100902.78;;;16.87;100.00
42111;BME280;27766;52.174;5.456;2023-08-31T08:17:44;100892.34;;;16.84;100.00
42111;BME280;27766;52.174;5.456;2023-08-31T08:20:11;100891.59;;;16.66;100.00
42111;BME280;27766;52.174;5.456;2023-08-31T08:22:38;100891.56;;;16.72;100.00
42111;BME280;27766;52.174;5.456;2023-08-31T08:25:05;100900.97;;;16.98;100.00
42111;BME280;27766;52.174;5.456;2023-08-31T08:27:32;100900.16;;;16.88;100.00
42111;BME280;27766;52.174;5.456;2023-08-31T08:29:59;100904.72;;;16.54;100.00
42111;BME280;27766;52.174;5.456;2023-08-31T08:32:26;100911.56;;;16.76;100.00
42111;BME280;27766;52.174;5.456;2023-08-31T08:34:53;100911.53;;;16.80;100.00
42111;BME280;27766;52.174;5.456;2023-08-31T08:37:21;100908.97;;;16.72;100.00
42111;BME280;27766;52.174;5.456;2023-08-31T08:39:48;100915.06;;;16.74;100.00
42111;BME280;27766;52.174;5.456;2023-08-31T08:42:18;100911.47;;;16.95;100.00
42111;BME280;27766;52.174;5.456;2023-08-31T08:44:46;100909.56;;;17.13;100.00
42111;BME280;27766;52.174;5.456;2023-08-31T08:47:13;100923.31;;;17.39;100.00
42111;BME280;27766;52.174;5.456;2023-08-31T08:49:40;100923.25;;;17.46;100.00
42111;BME280;27766;52.174;5.456;2023-08-31T08:52:07;100911.03;;;17.45;100.00
42111;BME280;27766;52.174;5.456;2023-08-31T08:54:35;100924.31;;;17.26;100.00
42111;BME280;27766;52.174;5.456;2023-08-31T08:57:06;100923.66;;;16.91;100.00
42111;BME280;27766;52.174;5.456;2023-08-31T08:59:33;100925.22;;;17.20;100.00
42111;BME280;27766;52.174;5.456;2023-08-31T09:02:00;100928.69;;;17.21;100.00
42111;BME280;27766;52.174;5.456;2023-08-31T09:04:28;100921.00;;;16.99;100.00
42111;BME280;27766;52.174;5.456;2023-08-31T09:06:56;100927.75;;;17.31;100.00
42111;BME280;27766;52.174;5.456;2023-08-31T09:09:23;100923.91;;;17.69;100.00
42111;BME280;27766;52.174;5.456;2023-08-31T09:11:50;100917.75;;;17.74;100.00
42111;BME280;27766;52.174;5.456;2023-08-31T09:14:18;100917.00;;;17.62;100.00
42111;BME280;27766;52.174;5.456;2023-08-31T09:16:46;100924.91;;;17.56;100.00
42111;BME280;27766;52.174;5.456;2023-08-31T09:19:21;100911.78;;;17.59;100.00
42111;BME280;27766;52.174;5.456;2023-08-31T09:21:49;100911.16;;;17.35;100.00
42111;BME280;27766;52.174;5.456;2023-08-31T09:24:17;100926.13;;;17.16;100.00
42111;BME280;27766;52.174;5.456;2023-08-31T09:26:45;100919.28;;;17.00;100.00
42111;BME280;27766;52.174;5.456;2023-08-31T09:29:15;100921.09;;;16.84;100.00
42111;BME280;27766;52.174;5.456;2023-08-31T09:31:43;100928.97;;;16.74;100.00
42111;BME280;27766;52.174;5.456;2023-08-31T09:34:14;100921.22;;;16.62;100.00
42111;BME280;27766;52.174;5.456;2023-08-31T09:36:41;100926.25;;;16.90;100.00
42111;BME280;27766;52.174;5.456;2023-08-31T09:39:10;100922.75;;;17.03;100.00
42111;BME280;27766;52.174;5.456;2023-08-31T09:41:54;100927.94;;;17.08;100.00
42111;BME280;27766;52.174;5.456;2023-08-31T09:44:21;100933.13;;;17.14;100.00
42111;BME280;27766;52.174;5.456;2023-08-31T09:46:48;100928.81;;;17.05;100.00
42111;BME280;27766;52.174;5.456;2023-08-31T09:49:16;100925.09;;;17.36;100.00
42111;BME280;27766;52.174;5.456;2023-08-31T09:51:49;100917.13;;;17.48;100.00
42111;BME280;27766;52.174;5.456;2023-08-31T09:54:18;100914.28;;;17.71;100.00
42111;BME280;27766;52.174;5.456;2023-08-31T09:56:46;100923.00;;;17.72;100.00
42111;BME280;27766;52.174;5.456;2023-08-31T09:59:14;100926.31;;;17.90;100.00
42111;BME280;27766;52.174;5.456;2023-08-31T10:01:42;100913.09;;;18.03;100.00
42111;BME280;27766;52.174;5.456;2023-08-31T10:04:09;100920.06;;;18.03;100.00
42111;BME280;27766;52.174;5.456;2023-08-31T10:06:40;100920.91;;;18.07;100.00
42111;BME280;27766;52.174;5.456;2023-08-31T10:09:08;100918.25;;;18.10;100.00
42111;BME280;27766;52.174;5.456;2023-08-31T10:11:41;100920.75;;;18.21;100.00
42111;BME280;27766;52.174;5.456;2023-08-31T10:14:13;100915.03;;;18.56;100.00
42111;BME280;27766;52.174;5.456;2023-08-31T10:16:43;100914.75;;;18.75;100.00
42111;BME280;27766;52.174;5.456;2023-08-31T10:19:11;100927.66;;;18.93;100.00
42111;BME280;27766;52.174;5.456;2023-08-31T10:21:39;100928.16;;;18.55;100.00
42111;BME280;27766;52.174;5.456;2023-08-31T10:24:06;100922.88;;;18.58;100.00
42111;BME280;27766;52.174;5.456;2023-08-31T10:26:33;100915.97;;;18.54;100.00
42111;BME280;27766;52.174;5.456;2023-08-31T10:29:00;100924.28;;;18.15;100.00
42111;BME280;27766;52.174;5.456;2023-08-31T10:31:33;100920.81;;;18.14;100.00
42111;BME280;27766;52.174;5.456;2023-08-31T10:34:03;100917.19;;;18.26;100.00
42111;BME280;27766;52.174;5.456;2023-08-31T10:36:38;100914.25;;;18.49;100.00
42111;BME280;27766;52.174;5.456;2023-08-31T10:39:06;100928.16;;;18.56;100.00
42111;BME280;27766;52.174;5.456;2023-08-31T10:41:35;100933.38;;;18.55;100.00
42111;BME280;27766;52.174;5.456;2023-08-31T10:44:21;100936.84;;;18.58;100.00
42111;BME280;27766;52.174;5.456;2023-08-31T10:46:49;100931.66;;;18.55;100.00
42111;BME280;27766;52.174;5.456;2023-08-31T10:49:23;100929.94;;;18.53;100.00
42111;BME280;27766;52.174;5.456;2023-08-31T10:54:21;100932.28;;;18.73;100.00
42111;BME280;27766;52.174;5.456;2023-08-31T10:56:52;100947.88;;;18.82;100.00
42111;BME280;27766;52.174;5.456;2023-08-31T10:59:21;100940.81;;;18.86;100.00
42111;BME280;27766;52.174;5.456;2023-08-31T11:01:57;100938.75;;;19.09;100.00
42111;BME280;27766;52.174;5.456;2023-08-31T11:04:28;100949.47;;;18.95;98.08
42111;BME280;27766;52.174;5.456;2023-08-31T11:07:14;100941.53;;;18.98;92.08
42111;BME280;27766;52.174;5.456;2023-08-31T11:09:41;100945.97;;;18.96;96.48
42111;BME280;27766;52.174;5.456;2023-08-31T11:12:09;100941.53;;;19.00;88.10
42111;BME280;27766;52.174;5.456;2023-08-31T11:14:36;100943.00;;;19.18;92.22
42111;BME280;27766;52.174;5.456;2023-08-31T11:17:04;100949.47;;;18.95;81.25
42111;BME280;27766;52.174;5.456;2023-08-31T11:19:33;100946.78;;;19.00;84.11
42111;BME280;27766;52.174;5.456;2023-08-31T11:22:01;100955.22;;;19.19;83.37
42111;BME280;27766;52.174;5.456;2023-08-31T11:24:32;100949.78;;;19.32;88.79
42111;BME280;27766;52.174;5.456;2023-08-31T11:26:59;100947.94;;;19.37;82.77
42111;BME280;27766;52.174;5.456;2023-08-31T11:29:26;100955.03;;;19.32;78.07
42111;BME280;27766;52.174;5.456;2023-08-31T11:31:57;100955.69;;;19.44;78.35
42111;BME280;27766;52.174;5.456;2023-08-31T11:34:27;100937.00;;;19.61;75.27
42111;BME280;27766;52.174;5.456;2023-08-31T11:36:54;100945.19;;;19.43;72.51
42111;BME280;27766;52.174;5.456;2023-08-31T11:39:21;100946.94;;;19.44;74.74
42111;BME280;27766;52.174;5.456;2023-08-31T11:41:49;100950.44;;;19.43;74.20
42111;BME280;27766;52.174;5.456;2023-08-31T11:44:16;100949.56;;;19.44;74.02
42111;BME280;27766;52.174;5.456;2023-08-31T11:46:45;100962.47;;;19.56;68.94
42111;BME280;27766;52.174;5.456;2023-08-31T11:49:13;100952.84;;;19.57;70.31
42111;BME280;27766;52.174;5.456;2023-08-31T11:51:40;100945.00;;;19.55;62.54
42111;BME280;27766;52.174;5.456;2023-08-31T11:54:07;100950.00;;;19.68;63.27
42111;BME280;27766;52.174;5.456;2023-08-31T11:56:38;100956.41;;;19.53;60.95
42111;BME280;27766;52.174;5.456;2023-08-31T11:59:11;100953.88;;;19.48;60.61
42111;BME280;27766;52.174;5.456;2023-08-31T12:01:41;100953.00;;;19.48;63.44
42111;BME280;27766;52.174;5.456;2023-08-31T12:04:12;100942.50;;;19.49;60.72
42111;BME280;27766;52.174;5.456;2023-08-31T12:06:40;100948.31;;;19.65;66.62
42111;BME280;27766;52.174;5.456;2023-08-31T12:09:08;100950.50;;;19.91;73.57
42111;BME280;27766;52.174;5.456;2023-08-31T12:11:35;100946.25;;;19.81;70.00
42111;BME280;27766;52.174;5.456;2023-08-31T12:14:03;100958.69;;;19.73;62.19
42111;BME280;27766;52.174;5.456;2023-08-31T12:16:36;100954.97;;;19.86;63.57
42111;BME280;27766;52.174;5.456;2023-08-31T12:19:03;100952.13;;;19.97;57.55
42111;BME280;27766;52.174;5.456;2023-08-31T12:21:32;100949.56;;;19.96;57.02
42111;BME280;27766;52.174;5.456;2023-08-31T12:23:59;100956.63;;;19.92;56.20
42111;BME280;27766;52.174;5.456;2023-08-31T12:26:30;100953.78;;;20.03;54.69
42111;BME280;27766;52.174;5.456;2023-08-31T12:28:57;100954.44;;;20.14;54.89
42111;BME280;27766;52.174;5.456;2023-08-31T12:31:24;100948.94;;;20.27;55.23
42111;BME280;27766;52.174;5.456;2023-08-31T12:33:51;100963.69;;;20.34;55.53
42111;BME280;27766;52.174;5.456;2023-08-31T12:36:18;100962.97;;;20.26;57.97
42111;BME280;27766;52.174;5.456;2023-08-31T12:38:45;100961.09;;;20.31;56.39
42111;BME280;27766;52.174;5.456;2023-08-31T12:41:12;100966.22;;;20.37;57.25
42111;BME280;27766;52.174;5.456;2023-08-31T12:43:39;100963.06;;;20.21;58.23
42111;BME280;27766;52.174;5.456;2023-08-31T12:46:06;100962.63;;;20.43;57.90
42111;BME280;27766;52.174;5.456;2023-08-31T12:48:34;100971.88;;;20.18;57.77
42111;BME280;27766;52.174;5.456;2023-08-31T12:51:02;100961.09;;;20.31;52.01
42111;BME280;27766;52.174;5.456;2023-08-31T12:53:29;100964.16;;;20.51;56.97
42111;BME280;27766;52.174;5.456;2023-08-31T12:55:56;100959.34;;;20.74;60.26